Time;durP1;ratioP1;P1;durP2;ratioP2;P2;SDS_P1;SDS_P2;PMS_P1;PMS_P2;Temp;Humidity;BMP_temperature;BMP_pressure;BME280_temperature;BME280_humidity;BME280_pressure;Samples;Min_cycle;Max_cycle;Signal;HPM_P1;HPM_P2
2023/11/01 00:01:31;;;;;;;3.63;1.30;;;;;;;12.18;52.82;100160.16;4983006;28;20166;-74
2023/11/01 00:04:00;;;;;;;4.15;1.40;;;;;;;12.17;53.00;100161.19;4983912;28;20054;-72
2023/11/01 00:06:28;;;;;;;3.15;1.45;;;;;;;12.17;53.13;100154.81;4970822;28;20062;-71
2023/11/01 00:08:57;;;;;;;3.38;1.40;;;;;;;12.18;53.39;100160.16;4975784;28;20056;-75
2023/11/01 00:11:27;;;;;;;4.82;1.58;;;;;;;12.18;53.50;100160.16;4988831;28;20050;-72
2023/11/01 00:13:55;;;;;;;5.05;1.95;;;;;;;12.16;53.40;100153.97;4986380;28;20137;-72
2023/11/01 00:16:23;;;;;;;3.08;1.40;;;;;;;12.17;53.46;100160.31;4968330;28;20433;-72
2023/11/01 00:18:51;;;;;;;3.85;1.80;;;;;;;12.16;53.50;100153.97;4979446;28;20093;-72
2023/11/01 00:21:19;;;;;;;3.28;1.52;;;;;;;12.16;53.47;100159.44;4983159;28;20050;-72
2023/11/01 00:23:47;;;;;;;3.53;1.50;;;;;;;12.16;53.27;100153.97;4984950;28;20053;-72
2023/11/01 00:26:15;;;;;;;2.80;1.30;;;;;;;12.16;53.03;100153.97;4982595;28;20046;-72
2023/11/01 00:28:47;;;;;;;3.17;1.60;;;;;;;12.18;53.04;100159.28;4966686;28;20144;-72
2023/11/01 00:31:15;;;;;;;3.40;1.35;;;;;;;12.16;53.71;100153.97;4966812;28;20050;-72
2023/11/01 00:33:43;;;;;;;2.03;1.40;;;;;;;12.16;53.52;100159.44;4968693;28;20054;-73
2023/11/01 00:36:12;;;;;;;2.60;1.30;;;;;;;12.17;53.13;100154.81;4989043;28;20060;-73
2023/11/01 00:38:40;;;;;;;2.35;1.30;;;;;;;12.15;53.54;100154.97;4971928;28;20525;-73
2023/11/01 00:41:08;;;;;;;4.68;1.40;;;;;;;12.15;53.56;100146.75;4970227;28;20088;-73
2023/11/01 00:43:36;;;;;;;3.45;1.25;;;;;;;12.15;53.51;100146.75;4970542;28;20480;-72
2023/11/01 00:46:06;;;;;;;3.30;1.50;;;;;;;12.16;53.51;100139.38;4968863;28;20338;-72
2023/11/01 00:48:34;;;;;;;3.53;1.52;;;;;;;12.13;53.46;100135.06;4988284;28;20045;-72
2023/11/01 00:51:02;;;;;;;2.90;1.27;;;;;;;12.13;53.49;100129.59;4989568;28;20057;-72
2023/11/01 00:53:30;;;;;;;3.08;1.50;;;;;;;12.13;53.68;100126.03;4974838;28;20442;-74
2023/11/01 00:55:58;;;;;;;3.45;1.40;;;;;;;12.13;53.68;100129.59;4998715;28;20050;-74
2023/11/01 00:58:26;;;;;;;3.13;1.27;;;;;;;12.13;53.14;100120.53;4998371;28;20116;-75
2023/11/01 01:00:54;;;;;;;4.03;1.30;;;;;;;12.12;53.61;100125.16;4975472;28;20539;-75
2023/11/01 01:03:23;;;;;;;2.78;1.30;;;;;;;12.13;53.82;100119.47;4976220;28;20484;-74
2023/11/01 01:05:51;;;;;;;2.67;1.30;;;;;;;12.12;53.70;100111.44;4992960;28;21165;-73
2023/11/01 01:08:19;;;;;;;3.70;1.45;;;;;;;12.11;53.25;100112.47;4969012;28;20209;-74
2023/11/01 01:10:47;;;;;;;3.25;1.20;;;;;;;12.10;53.52;100102.50;4972562;28;20049;-74
2023/11/01 01:13:16;;;;;;;2.50;1.15;;;;;;;12.09;53.71;100104.38;4973197;28;20138;-73
2023/11/01 01:15:44;;;;;;;2.95;1.20;;;;;;;12.10;53.19;100103.38;4987779;28;20056;-74
2023/11/01 01:18:14;;;;;;;3.85;1.35;;;;;;;12.09;53.42;100103.53;4990105;28;20152;-74
2023/11/01 01:20:43;;;;;;;2.40;1.13;;;;;;;12.09;53.13;100095.28;4972714;28;20054;-73
2023/11/01 01:23:11;;;;;;;2.67;1.10;;;;;;;12.07;53.64;100089.09;4992425;28;20049;-74
2023/11/01 01:25:40;;;;;;;3.38;1.05;;;;;;;12.07;53.85;100095.44;4988135;28;20135;-73
2023/11/01 01:28:08;;;;;;;3.15;1.10;;;;;;;12.06;53.64;100085.50;4990494;28;20045;-73
2023/11/01 01:30:36;;;;;;;3.08;1.05;;;;;;;12.07;53.36;100087.22;4972053;28;20510;-74
2023/11/01 01:33:04;;;;;;;3.15;1.15;;;;;;;12.06;53.22;100081.91;4991494;28;20053;-74
2023/11/01 01:35:32;;;;;;;3.40;1.08;;;;;;;12.06;53.63;100085.50;4992170;28;20050;-73
2023/11/01 01:38:01;;;;;;;2.45;1.10;;;;;;;12.08;53.29;100079.84;4991556;28;20552;-73
2023/11/01 01:40:29;;;;;;;2.15;1.00;;;;;;;12.06;53.72;100073.66;4972441;28;20555;-72
2023/11/01 01:43:09;;;;;;;3.83;1.10;;;;;;;12.07;53.63;100069.91;4973691;28;20137;-74
2023/11/01 01:45:38;;;;;;;3.30;1.30;;;;;;;12.04;53.80;100071.13;4974143;28;20045;-73
2023/11/01 01:48:06;;;;;;;3.50;1.30;;;;;;;12.04;53.77;100059.28;4974805;28;20103;-72
2023/11/01 01:50:34;;;;;;;3.53;1.23;;;;;;;12.04;53.76;100053.81;4972739;28;20103;-74
2023/11/01 01:53:04;;;;;;;4.70;1.52;;;;;;;12.05;53.76;100047.25;4990079;28;20055;-74
2023/11/01 01:55:32;;;;;;;2.40;1.17;;;;;;;12.03;53.76;100050.19;4973582;28;20049;-74
2023/11/01 01:58:00;;;;;;;4.00;1.50;;;;;;;12.03;53.83;100036.47;4974660;28;20770;-73
2023/11/01 02:00:30;;;;;;;3.53;1.40;;;;;;;12.03;53.42;100039.22;4970600;28;20745;-74
2023/11/01 02:03:00;;;;;;;3.88;1.52;;;;;;;12.01;53.84;100030.28;4975094;28;20054;-73
2023/11/01 02:05:29;;;;;;;3.53;1.45;;;;;;;12.02;53.88;100028.41;4972775;28;20068;-73
2023/11/01 02:07:57;;;;;;;2.42;1.40;;;;;;;12.01;53.29;100029.44;4973938;28;20057;-74
2023/11/01 02:10:26;;;;;;;4.10;1.58;;;;;;;12.02;53.40;100029.28;4973078;28;20054;-74
2023/11/01 02:12:54;;;;;;;2.67;1.50;;;;;;;12.01;53.33;100026.69;4973964;28;20050;-73
2023/11/01 02:15:25;;;;;;;4.18;1.70;;;;;;;12.00;53.61;100028.56;4972019;28;20046;-73
2023/11/01 02:17:52;;;;;;;4.75;1.50;;;;;;;11.98;53.46;100027.88;4969563;28;20131;-74
2023/11/01 02:20:21;;;;;;;3.67;1.73;;;;;;;11.98;53.67;100016.03;4987558;28;20125;-74
2023/11/01 02:22:49;;;;;;;5.53;2.17;;;;;;;11.97;53.66;100028.03;4969923;28;20069;-73
2023/11/01 02:25:18;;;;;;;3.58;1.70;;;;;;;11.97;54.13;100030.78;4973435;28;20054;-73
2023/11/01 02:27:47;;;;;;;4.15;1.90;;;;;;;11.96;53.95;100018.09;4988985;28;20058;-73
2023/11/01 02:30:16;;;;;;;4.57;1.92;;;;;;;11.94;53.84;100014.66;4987344;28;20046;-74
2023/11/01 02:32:47;;;;;;;4.22;1.90;;;;;;;11.92;53.75;100014.81;4971008;28;20074;-73
2023/11/01 02:35:16;;;;;;;4.22;2.30;;;;;;;11.91;53.91;100009.50;4988814;28;20161;-73
2023/11/01 02:37:44;;;;;;;5.93;2.20;;;;;;;11.89;54.33;100006.91;4988302;28;20429;-73
2023/11/01 02:40:12;;;;;;;4.55;2.33;;;;;;;11.88;54.35;100002.47;4969713;28;20097;-74
2023/11/01 02:42:42;;;;;;;6.30;2.25;;;;;;;11.90;54.11;100005.03;4987788;28;20050;-73
2023/11/01 02:45:10;;;;;;;3.15;1.92;;;;;;;11.87;54.00;100010.84;4985134;28;20046;-74
2023/11/01 02:47:38;;;;;;;5.65;2.50;;;;;;;11.86;54.06;99996.28;4970244;28;20512;-73
2023/11/01 02:50:10;;;;;;;4.28;2.20;;;;;;;11.86;54.75;99990.81;4986756;28;20053;-73
2023/11/01 02:52:38;;;;;;;3.97;2.05;;;;;;;11.82;54.52;99985.78;4987841;28;20405;-73
2023/11/01 02:55:09;;;;;;;5.30;2.00;;;;;;;11.82;54.09;99977.56;4983723;28;20260;-74
2023/11/01 02:57:38;;;;;;;4.38;1.90;;;;;;;11.78;54.10;99977.06;4969087;28;20828;-74
2023/11/01 03:00:18;;;;;;;4.88;2.10;;;;;;;11.79;54.26;99981.53;4968165;28;20156;-73
2023/11/01 03:02:47;;;;;;;4.95;2.25;;;;;;;11.75;54.74;99971.88;4967596;28;20058;-74
2023/11/01 03:05:15;;;;;;;3.80;2.10;;;;;;;11.74;54.76;99961.94;4971472;28;20057;-73
2023/11/01 03:07:44;;;;;;;4.40;2.10;;;;;;;11.71;54.85;99954.94;4987692;28;20054;-74
2023/11/01 03:10:12;;;;;;;3.88;1.67;;;;;;;11.71;54.54;99945.84;4983990;28;20138;-74
2023/11/01 03:12:41;;;;;;;4.15;1.77;;;;;;;11.69;54.96;99951.50;4988210;28;20096;-74
2023/11/01 03:15:12;;;;;;;3.55;1.92;;;;;;;11.70;55.17;99961.44;4969129;28;20478;-74
2023/11/01 03:17:42;;;;;;;2.95;1.77;;;;;;;11.66;54.68;99954.53;4966198;28;20054;-73
2023/11/01 03:20:11;;;;;;;4.03;1.80;;;;;;;11.64;55.17;99944.75;4984379;28;20042;-75
2023/11/01 03:22:40;;;;;;;3.65;1.60;;;;;;;11.62;55.14;99947.69;4987290;28;20050;-71
2023/11/01 03:25:09;;;;;;;4.18;2.10;;;;;;;11.62;54.91;99944.94;4999355;23;20046;-74
2023/11/01 03:27:38;;;;;;;4.22;1.75;;;;;;;11.60;54.95;99943.34;4999044;28;20050;-74
2023/11/01 03:30:07;;;;;;;3.38;1.80;;;;;;;11.61;54.96;99942.38;4967137;28;20501;-75
2023/11/01 03:32:37;;;;;;;5.07;1.90;;;;;;;11.59;55.08;99939.75;4985680;28;20960;-75
2023/11/01 03:35:06;;;;;;;4.22;1.70;;;;;;;11.57;55.08;99930.81;4986814;28;20044;-75
2023/11/01 03:37:34;;;;;;;3.60;1.70;;;;;;;11.57;55.01;99935.44;4978825;28;20053;-74
2023/11/01 03:40:02;;;;;;;2.67;1.52;;;;;;;11.55;55.44;99937.50;4959328;28;20792;-75
2023/11/01 03:42:30;;;;;;;2.67;1.50;;;;;;;11.53;55.06;99932.19;4976402;28;21113;-75
2023/11/01 03:44:58;;;;;;;2.50;1.50;;;;;;;11.52;55.70;99929.59;4959212;28;20171;-75
2023/11/01 03:47:27;;;;;;;3.50;1.70;;;;;;;11.52;55.28;99922.25;4975547;28;20057;-75
2023/11/01 03:49:56;;;;;;;4.00;1.60;;;;;;;11.52;55.81;99921.38;4975664;28;20054;-75
2023/11/01 03:52:24;;;;;;;3.10;1.70;;;;;;;11.49;55.21;99921.69;4959382;28;20928;-75
2023/11/01 03:54:52;;;;;;;2.58;1.55;;;;;;;11.46;55.84;99919.31;4959434;28;20560;-76
2023/11/01 03:57:20;;;;;;;2.92;1.30;;;;;;;11.46;55.56;99920.16;4976859;28;20596;-76
2023/11/01 03:59:48;;;;;;;3.03;1.60;;;;;;;11.45;55.93;99921.19;4975332;28;20625;-75
2023/11/01 04:02:16;;;;;;;2.60;1.40;;;;;;;11.44;55.90;99924.06;4977435;28;20053;-75
2023/11/01 04:04:44;;;;;;;3.55;1.52;;;;;;;11.43;56.03;99916.88;4980907;28;20580;-75
2023/11/01 04:07:13;;;;;;;3.00;1.42;;;;;;;11.44;55.58;99915.84;4963385;28;20085;-75
2023/11/01 04:09:41;;;;;;;2.63;1.25;;;;;;;11.41;55.82;99913.44;4962198;28;20065;-75
2023/11/01 04:12:09;;;;;;;3.92;1.50;;;;;;;11.40;56.12;99909.84;4963857;28;20456;-74
2023/11/01 04:14:37;;;;;;;5.03;1.60;;;;;;;11.40;55.85;99912.56;4963419;28;20057;-76
2023/11/01 04:17:05;;;;;;;2.30;1.20;;;;;;;11.40;56.42;99914.44;4979948;28;20082;-75
2023/11/01 04:19:33;;;;;;;3.28;1.73;;;;;;;11.40;56.39;99920.78;4980297;28;20078;-76
2023/11/01 04:22:02;;;;;;;4.15;1.70;;;;;;;11.40;56.37;99920.78;4978606;28;20138;-76
2023/11/01 04:24:31;;;;;;;2.85;1.20;;;;;;;11.42;56.00;99917.91;4977167;28;20132;-75
2023/11/01 04:26:59;;;;;;;3.17;1.35;;;;;;;11.40;56.08;99907.09;4980648;28;20521;-76
2023/11/01 04:29:27;;;;;;;2.40;1.40;;;;;;;11.40;55.97;99908.97;4961342;28;20137;-75
2023/11/01 04:31:55;;;;;;;2.25;1.20;;;;;;;11.41;56.21;99907.94;4961070;28;20065;-75
2023/11/01 04:34:24;;;;;;;2.17;1.25;;;;;;;11.40;56.15;99906.22;4979783;28;20053;-74
2023/11/01 04:36:52;;;;;;;2.00;1.10;;;;;;;11.39;56.23;99899.88;4980553;28;20069;-74
2023/11/01 04:39:20;;;;;;;2.08;1.20;;;;;;;11.40;56.27;99895.28;4978676;28;20129;-74
2023/11/01 04:41:50;;;;;;;2.03;1.27;;;;;;;11.41;56.23;99903.34;4979650;28;20089;-74
2023/11/01 04:44:18;;;;;;;2.97;1.10;;;;;;;11.39;56.30;99899.06;4978155;28;20245;-74
2023/11/01 04:46:46;;;;;;;2.42;1.20;;;;;;;11.39;56.78;99905.38;4961787;28;20094;-73
2023/11/01 04:49:14;;;;;;;2.88;1.02;;;;;;;11.40;56.32;99896.13;4979887;28;20061;-74
2023/11/01 04:51:43;;;;;;;2.92;1.30;;;;;;;11.39;56.41;99894.41;4962360;28;20057;-74
2023/11/01 04:54:11;;;;;;;2.58;1.30;;;;;;;11.38;56.92;99883.66;4979622;28;20136;-74
2023/11/01 04:56:40;;;;;;;3.28;1.33;;;;;;;11.38;57.08;99891.88;4979163;28;20050;-74
2023/11/01 04:59:09;;;;;;;2.42;1.00;;;;;;;11.39;57.08;99886.19;4959507;28;20065;-74
2023/11/01 05:01:37;;;;;;;2.30;1.10;;;;;;;11.38;56.83;99891.88;4978924;28;20050;-75
2023/11/01 05:04:05;;;;;;;2.05;1.10;;;;;;;11.38;56.60;99894.59;4979488;28;20054;-74
2023/11/01 05:06:33;;;;;;;2.25;1.08;;;;;;;11.38;57.10;99878.16;4962248;28;20058;-74
2023/11/01 05:09:02;;;;;;;1.98;1.13;;;;;;;11.38;56.80;99881.75;4975607;28;20311;-75
2023/11/01 05:11:32;;;;;;;1.67;0.98;;;;;;;11.39;56.78;99890.84;4961312;28;20514;-74
2023/11/01 05:14:00;;;;;;;3.38;1.08;;;;;;;11.38;56.73;99881.75;4983597;28;20046;-74
2023/11/01 05:16:29;;;;;;;2.60;0.88;;;;;;;11.40;57.02;99881.56;4961001;28;20177;-74
2023/11/01 05:18:57;;;;;;;1.98;1.00;;;;;;;11.37;57.29;99882.78;4961827;28;20058;-74
2023/11/01 05:21:25;;;;;;;1.95;1.38;;;;;;;11.38;57.20;99873.53;4979086;28;20053;-74
2023/11/01 05:23:53;;;;;;;1.23;0.93;;;;;;;11.39;56.89;99877.16;4979074;28;20144;-75
2023/11/01 05:26:21;;;;;;;2.80;1.10;;;;;;;11.39;57.45;99880.72;4978610;28;20106;-74
2023/11/01 05:28:49;;;;;;;1.95;1.10;;;;;;;11.39;57.47;99875.22;4979100;28;20502;-74
2023/11/01 05:31:17;;;;;;;2.67;1.20;;;;;;;11.40;57.42;99870.63;4960474;28;20552;-74
2023/11/01 05:33:46;;;;;;;2.08;0.95;;;;;;;11.42;56.95;99869.44;4979328;28;20202;-74
2023/11/01 05:36:14;;;;;;;2.08;1.20;;;;;;;11.40;56.91;99871.47;4961692;28;20054;-74
2023/11/01 05:38:43;;;;;;;2.40;1.02;;;;;;;11.39;57.33;99863.44;4978171;28;20054;-74
2023/11/01 05:41:11;;;;;;;2.72;1.30;;;;;;;11.40;56.92;99873.34;4961136;28;20052;-74
2023/11/01 05:43:40;;;;;;;2.47;1.10;;;;;;;11.41;57.38;99859.50;4975843;28;20058;-74
2023/11/01 05:46:08;;;;;;;2.00;1.10;;;;;;;11.41;57.18;99861.38;4960199;28;20042;-73
2023/11/01 05:48:36;;;;;;;1.77;1.33;;;;;;;11.41;57.07;99859.50;4978987;28;20061;-74
2023/11/01 05:51:07;;;;;;;1.63;1.05;;;;;;;11.42;57.61;99869.44;4977890;28;20057;-74
2023/11/01 05:53:35;;;;;;;2.88;1.20;;;;;;;11.41;57.44;99862.25;4959507;28;20133;-74
2023/11/01 05:56:03;;;;;;;3.33;1.30;;;;;;;11.42;57.20;99863.97;4979852;28;20085;-74
2023/11/01 05:58:37;;;;;;;3.65;1.15;;;;;;;11.43;57.10;99862.94;4978542;28;20053;-74
2023/11/01 06:01:07;;;;;;;2.17;1.27;;;;;;;11.44;57.26;99866.53;4959915;28;20054;-74
2023/11/01 06:03:35;;;;;;;1.42;0.93;;;;;;;11.43;57.45;99862.09;4979009;28;20577;-74
2023/11/01 06:06:04;;;;;;;2.65;1.00;;;;;;;11.43;57.56;99854.72;4979695;28;20046;-74
2023/11/01 06:08:33;;;;;;;2.92;1.20;;;;;;;11.45;57.55;99860.91;4978734;28;20430;-73
2023/11/01 06:11:01;;;;;;;2.05;0.93;;;;;;;11.44;57.14;99867.41;4976603;28;20046;-74
2023/11/01 06:13:30;;;;;;;3.40;1.17;;;;;;;11.45;57.53;99865.53;4961120;28;20046;-74
2023/11/01 06:16:04;;;;;;;1.83;0.90;;;;;;;11.45;57.28;99865.53;4977368;28;20054;-74
2023/11/01 06:18:32;;;;;;;3.35;1.02;;;;;;;11.45;57.46;99865.53;4960105;28;20084;-74
2023/11/01 06:21:01;;;;;;;2.47;1.20;;;;;;;11.45;57.11;99865.53;4979685;28;20124;-73
2023/11/01 06:23:29;;;;;;;2.35;1.00;;;;;;;11.46;57.54;99878.22;4978590;28;20057;-73
2023/11/01 06:25:59;;;;;;;5.20;1.45;;;;;;;11.47;57.35;99872.53;4978506;28;20121;-74
2023/11/01 06:28:27;;;;;;;2.80;1.00;;;;;;;11.47;57.62;99879.94;4976968;28;20057;-74
2023/11/01 06:30:56;;;;;;;2.78;1.00;;;;;;;11.48;57.41;99885.22;4977300;28;20050;-74
2023/11/01 06:33:24;;;;;;;2.58;1.20;;;;;;;11.48;57.29;99877.00;4960369;28;20055;-73
2023/11/01 06:35:52;;;;;;;3.63;1.50;;;;;;;11.50;57.46;99885.06;4978363;28;20147;-74
2023/11/01 06:38:20;;;;;;;1.88;0.90;;;;;;;11.50;57.56;99879.56;4959516;28;20497;-74
2023/11/01 06:40:48;;;;;;;4.00;1.20;;;;;;;11.51;57.55;99878.56;4976673;28;20051;-74
2023/11/01 06:43:17;;;;;;;2.95;1.00;;;;;;;11.54;57.25;99886.47;4975752;28;20462;-74
2023/11/01 06:45:45;;;;;;;2.47;1.20;;;;;;;11.51;57.12;99884.91;4977302;28;20046;-74
2023/11/01 06:48:14;;;;;;;3.50;1.33;;;;;;;11.51;57.48;99882.16;4961683;28;20062;-74
2023/11/01 06:50:42;;;;;;;2.22;1.20;;;;;;;11.52;57.16;99889.38;4974744;28;20584;-74
2023/11/01 06:53:10;;;;;;;2.00;1.20;;;;;;;11.53;57.35;99892.97;4976647;28;20073;-74
2023/11/01 06:55:38;;;;;;;2.78;1.13;;;;;;;11.52;57.03;99881.13;4978478;28;20054;-74
2023/11/01 06:58:06;;;;;;;1.85;0.85;;;;;;;11.53;57.43;99887.47;4959439;28;20513;-74
2023/11/01 07:00:37;;;;;;;2.60;1.10;;;;;;;11.53;57.57;99885.59;4976192;28;20046;-74
2023/11/01 07:03:05;;;;;;;2.53;1.20;;;;;;;11.53;56.98;99887.47;4977430;28;20302;-74
2023/11/01 07:05:37;;;;;;;3.03;0.85;;;;;;;11.51;57.32;99889.53;4978016;28;21289;-74
2023/11/01 07:08:05;;;;;;;1.75;1.05;;;;;;;11.54;57.11;99891.94;4959096;28;20146;-73
2023/11/01 07:10:33;;;;;;;2.67;1.00;;;;;;;11.53;57.47;99885.59;4960348;28;20046;-74
2023/11/01 07:13:01;;;;;;;1.90;1.05;;;;;;;11.54;57.43;99890.06;4977785;28;20054;-74
2023/11/01 07:15:29;;;;;;;1.63;0.80;;;;;;;11.55;57.11;99886.31;4975046;28;20065;-73
2023/11/01 07:17:58;;;;;;;2.40;0.82;;;;;;;11.57;57.56;99895.19;4977814;28;20050;-74
2023/11/01 07:20:26;;;;;;;2.85;1.13;;;;;;;11.56;57.63;99888.00;4975864;28;20665;-73
2023/11/01 07:22:54;;;;;;;2.55;1.13;;;;;;;11.57;57.16;99891.59;4959344;28;20132;-73
2023/11/01 07:25:22;;;;;;;2.40;1.20;;;;;;;11.57;57.60;99897.94;4959566;28;20046;-73
2023/11/01 07:27:50;;;;;;;3.58;1.20;;;;;;;11.58;57.27;99888.69;4978828;28;20133;-73
2023/11/01 07:30:18;;;;;;;2.75;1.35;;;;;;;11.61;57.63;99887.56;4973432;28;20050;-74
2023/11/01 07:32:46;;;;;;;1.77;1.08;;;;;;;11.61;57.24;99879.34;4975893;28;20750;-73
2023/11/01 07:35:16;;;;;;;2.75;1.38;;;;;;;11.64;57.42;99884.47;4957929;28;20085;-75
2023/11/01 07:37:44;;;;;;;2.10;1.10;;;;;;;11.63;57.65;99871.81;4974370;28;20046;-74
2023/11/01 07:40:12;;;;;;;2.03;1.08;;;;;;;11.64;57.36;99876.25;4957537;28;20054;-74
2023/11/01 07:42:40;;;;;;;2.67;1.30;;;;;;;11.65;57.90;99869.75;4952876;28;20140;-74
2023/11/01 07:45:09;;;;;;;2.28;1.23;;;;;;;11.66;57.23;99877.81;4973231;28;20165;-75
2023/11/01 07:47:38;;;;;;;2.30;1.20;;;;;;;11.66;57.35;99880.53;4976125;28;20068;-74
2023/11/01 07:50:07;;;;;;;2.33;1.33;;;;;;;11.67;57.47;99876.78;4974589;28;20057;-76
2023/11/01 07:52:39;;;;;;;3.53;1.30;;;;;;;11.69;57.91;99873.88;4975402;28;20049;-74
2023/11/01 07:55:08;;;;;;;3.58;1.40;;;;;;;11.71;57.76;99877.31;4974792;28;20132;-74
2023/11/01 07:57:35;;;;;;;2.40;1.33;;;;;;;11.71;57.60;99874.59;4973228;28;20054;-73
2023/11/01 08:00:05;;;;;;;3.08;1.40;;;;;;;11.72;57.89;99874.38;4974444;28;20076;-73
2023/11/01 08:02:33;;;;;;;3.38;1.50;;;;;;;11.73;58.11;99867.88;4957076;28;20062;-73
2023/11/01 08:05:03;;;;;;;3.60;1.60;;;;;;;11.78;57.89;99870.16;4973751;28;21128;-73
2023/11/01 08:07:33;;;;;;;2.30;1.23;;;;;;;11.78;58.12;99872.88;4974959;28;20066;-72
2023/11/01 08:10:03;;;;;;;3.42;1.30;;;;;;;11.81;57.58;99868.94;4955980;28;20137;-73
2023/11/01 08:12:31;;;;;;;2.92;1.30;;;;;;;11.81;57.67;99871.69;4974961;28;20397;-73
2023/11/01 08:14:59;;;;;;;2.92;1.42;;;;;;;11.83;57.77;99866.91;4973155;28;20050;-73
2023/11/01 08:17:27;;;;;;;4.60;1.15;;;;;;;11.85;57.93;99864.84;4973612;28;20054;-73
2023/11/01 08:19:55;;;;;;;2.67;1.20;;;;;;;11.86;57.69;99869.31;4955963;28;20054;-73
2023/11/01 08:22:23;;;;;;;4.55;1.33;;;;;;;11.87;58.35;99866.41;4974805;28;20105;-73
2023/11/01 08:24:51;;;;;;;2.53;1.25;;;;;;;11.90;58.12;99854.22;4973704;28;20053;-73
2023/11/01 08:27:21;;;;;;;4.43;1.40;;;;;;;11.94;57.87;99856.50;4974637;28;20065;-73
2023/11/01 08:29:49;;;;;;;3.47;1.10;;;;;;;11.95;58.41;99855.47;4972476;28;20061;-73
2023/11/01 08:32:17;;;;;;;3.30;1.38;;;;;;;11.97;57.90;99850.66;4974123;28;20241;-73
2023/11/01 08:34:44;;;;;;;2.78;1.42;;;;;;;12.01;58.41;99851.19;4954898;28;20528;-73
2023/11/01 08:37:12;;;;;;;2.65;1.23;;;;;;;12.03;58.36;99849.13;4956833;28;20604;-73
2023/11/01 08:39:40;;;;;;;3.22;1.33;;;;;;;12.06;58.48;99846.91;4973121;28;20577;-73
2023/11/01 08:42:08;;;;;;;3.55;1.10;;;;;;;12.10;58.48;99855.66;4975890;28;20473;-73
2023/11/01 08:44:38;;;;;;;3.22;1.30;;;;;;;12.13;58.06;99839.69;4975398;28;20060;-73
2023/11/01 08:47:06;;;;;;;5.43;1.65;;;;;;;12.15;57.79;99847.78;4973971;28;20418;-73
2023/11/01 08:49:36;;;;;;;3.40;1.42;;;;;;;12.18;57.91;99841.09;4974770;28;20802;-73
2023/11/01 08:52:05;;;;;;;4.57;1.20;;;;;;;12.22;57.82;99839.72;4960674;28;20516;-73
2023/11/01 08:54:33;;;;;;;2.92;1.23;;;;;;;12.24;57.86;99834.94;4977830;28;20632;-73
2023/11/01 08:57:01;;;;;;;1.88;0.98;;;;;;;12.27;57.62;99832.72;4977786;28;20116;-73
2023/11/01 08:59:29;;;;;;;2.75;1.10;;;;;;;12.28;57.61;99831.69;4958915;28;20065;-73
2023/11/01 09:01:58;;;;;;;3.25;1.30;;;;;;;12.33;57.37;99839.41;4976938;28;20062;-73
2023/11/01 09:04:40;;;;;;;5.25;1.23;;;;;;;12.34;57.42;99852.94;4959396;28;20057;-73
2023/11/01 09:07:08;;;;;;;2.90;1.20;;;;;;;12.37;57.74;99841.66;4975747;28;20062;-73
2023/11/01 09:09:36;;;;;;;4.30;1.40;;;;;;;12.39;57.77;99849.69;4977689;28;20575;-73
2023/11/01 09:12:04;;;;;;;4.32;1.15;;;;;;;12.42;57.29;99847.47;4960819;28;20076;-74
2023/11/01 09:14:32;;;;;;;2.65;1.00;;;;;;;12.44;57.13;99847.31;4976703;28;20046;-75
2023/11/01 09:17:02;;;;;;;3.97;1.15;;;;;;;12.49;57.72;99853.13;4959429;28;20054;-74
2023/11/01 09:19:30;;;;;;;2.55;0.90;;;;;;;12.49;57.40;99851.22;4976057;28;20133;-75
2023/11/01 09:21:57;;;;;;;2.40;1.05;;;;;;;12.51;57.50;99845.59;4960908;28;20173;-74
2023/11/01 09:24:25;;;;;;;3.50;1.30;;;;;;;12.55;57.07;99854.31;4974131;28;20046;-74
2023/11/01 09:26:53;;;;;;;4.00;1.17;;;;;;;12.56;57.42;99856.03;4977193;28;20509;-74
2023/11/01 09:29:21;;;;;;;3.25;1.40;;;;;;;12.58;57.11;99863.06;4974232;28;20509;-74
2023/11/01 09:31:49;;;;;;;2.30;1.10;;;;;;;12.59;57.11;99856.56;4977092;28;20658;-73
2023/11/01 09:34:19;;;;;;;3.08;1.15;;;;;;;12.63;57.05;99852.47;4959339;28;20053;-74
2023/11/01 09:36:47;;;;;;;3.30;1.20;;;;;;;12.63;56.91;99849.72;4978237;28;20137;-74
2023/11/01 09:39:15;;;;;;;4.28;1.27;;;;;;;12.64;56.89;99856.06;4977414;28;20054;-75
2023/11/01 09:41:48;;;;;;;2.58;1.30;;;;;;;12.68;56.41;99851.97;4975766;28;20729;-74
2023/11/01 09:44:17;;;;;;;2.42;1.20;;;;;;;12.67;56.88;99856.59;4960652;28;20584;-75
2023/11/01 09:46:47;;;;;;;3.22;1.23;;;;;;;12.68;56.68;99858.31;4976658;28;20137;-74
2023/11/01 09:49:15;;;;;;;2.95;1.02;;;;;;;12.70;56.88;99856.25;4973197;28;20048;-74
2023/11/01 09:51:45;;;;;;;1.88;1.10;;;;;;;12.72;56.29;99850.56;4977147;28;20140;-75
2023/11/01 09:54:13;;;;;;;3.08;1.05;;;;;;;12.71;56.81;99855.19;4959254;28;20046;-74
2023/11/01 09:56:43;;;;;;;2.55;1.13;;;;;;;12.71;56.18;99852.44;4977278;28;20575;-74
2023/11/01 09:59:12;;;;;;;3.67;1.10;;;;;;;12.71;56.68;99852.44;4959371;28;20440;-74
2023/11/01 10:01:41;;;;;;;2.70;1.17;;;;;;;12.72;56.26;99845.94;4977525;28;20074;-75
2023/11/01 10:04:09;;;;;;;3.10;1.02;;;;;;;12.72;56.57;99845.94;4977576;28;20077;-75
2023/11/01 10:06:38;;;;;;;3.40;1.10;;;;;;;12.73;56.19;99844.91;4974367;28;20043;-76
2023/11/01 10:09:07;;;;;;;3.33;1.23;;;;;;;12.75;56.52;99833.75;4975457;28;20184;-75
2023/11/01 10:11:35;;;;;;;3.13;0.90;;;;;;;12.75;56.26;99831.88;4978384;28;20061;-73
2023/11/01 10:14:03;;;;;;;2.08;0.90;;;;;;;12.77;56.38;99826.22;4959048;28;20177;-75
2023/11/01 10:16:32;;;;;;;3.60;1.23;;;;;;;12.80;56.62;99820.34;4977075;28;20046;-75
2023/11/01 10:19:00;;;;;;;2.65;1.13;;;;;;;12.81;56.14;99814.69;4975047;28;20597;-73
2023/11/01 10:21:30;;;;;;;2.35;0.88;;;;;;;12.84;56.18;99811.63;4957344;28;20061;-76
2023/11/01 10:24:00;;;;;;;3.53;1.15;;;;;;;12.89;55.92;99811.06;4976631;28;20090;-75
2023/11/01 10:26:30;;;;;;;3.30;1.00;;;;;;;12.91;55.71;99810.91;4975191;28;20080;-74
2023/11/01 10:29:00;;;;;;;2.88;1.20;;;;;;;12.92;56.29;99818.97;4977700;28;20140;-76
2023/11/01 10:31:27;;;;;;;3.53;1.35;;;;;;;12.93;55.82;99809.72;4958868;28;20561;-75
2023/11/01 10:33:56;;;;;;;2.97;0.93;;;;;;;12.94;56.02;99808.69;4974850;28;20814;-75
2023/11/01 10:36:24;;;;;;;3.53;1.05;;;;;;;12.96;55.65;99809.34;4977066;28;20057;-75
2023/11/01 10:38:54;;;;;;;3.72;1.25;;;;;;;12.97;55.78;99794.56;4976432;28;20054;-75
2023/11/01 10:41:23;;;;;;;4.68;1.20;;;;;;;13.00;55.54;99793.38;4958169;28;20050;-76
2023/11/01 10:43:54;;;;;;;4.07;1.60;;;;;;;13.02;55.63;99796.81;4975324;28;20537;-74
2023/11/01 10:46:23;;;;;;;3.47;1.63;;;;;;;13.01;55.56;99790.47;4973254;28;20077;-76
2023/11/01 10:48:55;;;;;;;2.60;1.10;;;;;;;13.04;55.14;99783.75;4959314;28;20151;-76
2023/11/01 10:51:24;;;;;;;3.88;1.25;;;;;;;13.04;55.32;99778.25;4976700;28;20053;-75
2023/11/01 10:53:53;;;;;;;3.72;1.10;;;;;;;13.07;55.44;99780.66;4958673;28;20142;-75
2023/11/01 10:56:22;;;;;;;3.67;1.27;;;;;;;13.06;55.58;99766.06;4956977;28;20046;-74
2023/11/01 10:58:53;;;;;;;3.53;1.20;;;;;;;13.09;55.16;99760.22;4959128;28;20437;-75
2023/11/01 11:01:30;;;;;;;3.78;1.35;;;;;;;13.13;54.81;99752.47;4957553;28;20108;-76
2023/11/01 11:04:04;;;;;;;3.70;1.05;;;;;;;13.15;54.78;99745.75;4973583;28;20046;-75
2023/11/01 11:06:40;;;;;;;3.78;1.08;;;;;;;13.19;55.33;99741.66;4972972;28;20101;-75
2023/11/01 11:09:22;;;;;;;3.45;1.00;;;;;;;13.23;54.66;99740.22;4975684;28;20413;-75
2023/11/01 11:12:14;;;;;;;4.38;1.30;;;;;;;13.23;54.07;99736.63;4976145;28;20124;-75
2023/11/01 11:14:44;;;;;;;4.40;1.27;;;;;;;13.27;54.82;99742.63;4976252;28;20057;-75
2023/11/01 11:17:16;;;;;;;4.30;1.70;;;;;;;13.31;54.26;99728.34;4972376;28;20046;-75
2023/11/01 11:20:12;;;;;;;4.22;1.45;;;;;;;13.31;54.01;99727.50;4973708;28;20062;-75
2023/11/01 11:23:09;;;;;;;2.75;1.50;;;;;;;13.34;53.88;99729.88;4974488;28;20159;-74
2023/11/01 11:25:45;;;;;;;3.47;1.30;;;;;;;13.37;54.03;99718.50;4957899;28;20056;-75
2023/11/01 11:28:40;;;;;;;5.03;1.50;;;;;;;13.37;53.88;99733.13;4977437;28;20444;-75
2023/11/01 11:31:11;;;;;;;3.85;1.35;;;;;;;13.40;54.82;99723.66;4975660;28;20058;-75
2023/11/01 11:34:12;;;;;;;4.53;1.40;;;;;;;13.43;53.30;99715.94;4976184;28;20117;-74
2023/11/01 11:37:05;;;;;;;3.25;1.20;;;;;;;13.45;53.18;99711.09;4976280;28;20058;-74
2023/11/01 11:40:02;;;;;;;4.05;1.52;;;;;;;13.44;53.23;99687.41;4956472;28;20054;-75
2023/11/01 11:42:49;;;;;;;3.33;1.30;;;;;;;13.49;53.34;99684.09;4958447;28;20705;-74